Amelia Court House, Virginia
Current Conditions -  °F | °C
As of 3:55 PM on Friday 31 Oct 2014 (Local Time) from KW81 Reporting Station
Overcast Overcast  
Wind Chill: 56°   Ceiling: 5000
Heat Index: 56°   Visibility: 10mi
Dew Point: 37°   Wind: 3mph
Humidity: 49%   Direction: 30°NNE
Pressure: 29.84"   Gusts: NA
Location:  37.34°N, 77.98°W
Report Text: KW81 311955Z AUTO 03003KT 10SM OVC050 14/03 A2984 RMK AO1 T01350030
Loading
Personal Weather Stations






























Interactive Weather Map
Tropical Storm Tracking
New forecast layout! Learn more

10-Day Weather Forecast

Advertisements
Track Severe Weather on mobile